createdAt,value
2023-11-28T00:00:38.200Z,57.58
2023-11-28T00:03:10.516Z,58.25
2023-11-28T00:05:39.095Z,61.40
2023-11-28T00:08:07.572Z,53.78
2023-11-28T00:10:35.985Z,48.50
2023-11-28T00:13:04.421Z,53.08
2023-11-28T00:15:35.015Z,55.08
2023-11-28T00:18:03.646Z,49.45
2023-11-28T00:20:33.468Z,51.97
2023-11-28T00:23:01.906Z,48.88
2023-11-28T00:25:30.439Z,47.45
2023-11-28T00:27:58.868Z,55.50
2023-11-28T00:30:27.825Z,53.97
2023-11-28T00:32:56.219Z,53.60
2023-11-28T00:35:24.706Z,51.20
2023-11-28T00:37:54.504Z,51.72
2023-11-28T00:40:26.637Z,47.53
2023-11-28T00:42:55.138Z,50.67
2023-11-28T00:45:26.046Z,49.42
2023-11-28T00:47:55.817Z,51.70
2023-11-28T00:50:24.365Z,51.00
2023-11-28T00:52:54.155Z,52.70
2023-11-28T00:55:23.078Z,51.10
2023-11-28T00:57:51.566Z,57.25
2023-11-28T01:00:20.280Z,52.15
2023-11-28T01:02:48.935Z,52.95
2023-11-28T01:05:17.573Z,54.30
2023-11-28T01:07:46.925Z,50.88
2023-11-28T01:10:16.735Z,63.42
2023-11-28T01:12:47.757Z,51.00
2023-11-28T01:15:16.230Z,54.55
2023-11-28T01:17:44.894Z,61.58
2023-11-28T01:20:14.369Z,58.28
2023-11-28T01:22:44.520Z,60.80
2023-11-28T01:25:13.782Z,59.80
2023-11-28T01:27:43.562Z,59.55
2023-11-28T01:30:13.416Z,62.22
2023-11-28T01:32:42.124Z,59.58
2023-11-28T01:35:11.076Z,63.33
2023-11-28T01:37:39.511Z,54.08
2023-11-28T01:40:08.413Z,57.78
2023-11-28T01:42:37.978Z,59.13
2023-11-28T01:45:10.169Z,55.60
2023-11-28T01:47:38.761Z,58.85
2023-11-28T01:50:08.374Z,54.83
2023-11-28T01:52:37.293Z,74.60
2023-11-28T01:55:06.466Z,53.67
2023-11-28T01:57:35.614Z,63.38
2023-11-28T02:00:05.235Z,69.53
2023-11-28T02:02:43.532Z,66.43
2023-11-28T02:05:13.388Z,70.88
2023-11-28T02:07:43.810Z,56.45
2023-11-28T02:10:13.446Z,51.83
2023-11-28T02:12:45.269Z,52.92
2023-11-28T02:15:13.835Z,48.07
2023-11-28T02:17:43.891Z,50.22
2023-11-28T02:20:12.497Z,51.10
2023-11-28T02:22:42.145Z,55.83
2023-11-28T02:25:10.996Z,49.90
2023-11-28T02:27:40.787Z,49.75
2023-11-28T02:30:09.726Z,50.65
2023-11-28T02:32:38.400Z,55.20
2023-11-28T02:35:14.886Z,51.38
2023-11-28T02:37:49.559Z,51.75
2023-11-28T02:40:18.287Z,53.42
2023-11-28T02:42:48.139Z,50.17
2023-11-28T02:45:16.677Z,58.50
2023-11-28T02:47:45.169Z,50.78
2023-11-28T02:50:13.634Z,60.90
2023-11-28T02:52:42.109Z,52.58
2023-11-28T02:55:10.916Z,54.63
2023-11-28T02:57:39.462Z,53.35
2023-11-28T03:00:11.212Z,51.75
2023-11-28T03:02:40.173Z,47.45
2023-11-28T03:05:09.290Z,44.75
2023-11-28T03:07:37.720Z,46.60
2023-11-28T03:10:06.647Z,39.95
2023-11-28T03:12:35.039Z,40.35
2023-11-28T03:15:03.591Z,38.75
2023-11-28T03:17:33.576Z,38.75
2023-11-28T03:20:02.045Z,36.92
2023-11-28T03:22:30.467Z,35.25
2023-11-28T03:25:06.541Z,53.13
2023-11-28T03:27:35.009Z,39.97
2023-11-28T03:30:03.778Z,47.95
2023-11-28T03:32:35.007Z,38.67
2023-11-28T03:35:04.186Z,32.33
2023-11-28T03:37:32.699Z,40.45
2023-11-28T03:40:01.199Z,37.30
2023-11-28T03:42:29.636Z,35.65
2023-11-28T03:44:58.184Z,31.33
2023-11-28T03:47:26.745Z,27.23
2023-11-28T03:49:57.458Z,43.25
2023-11-28T03:52:25.965Z,27.48
2023-11-28T03:54:54.395Z,27.83
2023-11-28T03:57:22.810Z,29.33
2023-11-28T03:59:51.245Z,27.77
2023-11-28T04:02:19.795Z,36.30
2023-11-28T04:04:48.490Z,29.42
2023-11-28T04:07:18.364Z,43.13
2023-11-28T04:09:46.800Z,30.25
2023-11-28T04:12:15.255Z,67.55
2023-11-28T04:14:43.841Z,26.60
2023-11-28T04:17:12.348Z,28.08
2023-11-28T04:19:41.249Z,25.80
2023-11-28T04:22:11.359Z,29.30
2023-11-28T04:24:42.362Z,33.65
2023-11-28T04:27:13.419Z,24.35
2023-11-28T04:29:42.021Z,27.52
2023-11-28T04:32:10.480Z,23.05
2023-11-28T04:34:39.489Z,27.70
2023-11-28T04:37:08.546Z,23.33
2023-11-28T04:39:45.684Z,20.75
2023-11-28T04:42:14.170Z,32.10
2023-11-28T04:44:43.130Z,56.80
2023-11-28T04:47:11.640Z,19.98
2023-11-28T04:49:40.172Z,25.02
2023-11-28T04:52:08.792Z,21.65
2023-11-28T04:54:37.289Z,17.27
2023-11-28T04:57:07.321Z,29.98
2023-11-28T04:59:35.884Z,32.45
2023-11-28T05:02:04.422Z,27.45
2023-11-28T05:04:33.171Z,22.98
2023-11-28T05:07:01.606Z,18.25
2023-11-28T05:09:30.222Z,20.35
2023-11-28T05:11:58.682Z,19.35
2023-11-28T05:14:30.732Z,19.70
2023-11-28T05:16:59.207Z,20.30
2023-11-28T05:19:28.172Z,19.92
2023-11-28T05:21:58.621Z,22.77
2023-11-28T05:24:27.088Z,18.38
2023-11-28T05:27:01.974Z,16.00
2023-11-28T05:29:32.968Z,18.55
2023-11-28T05:32:02.329Z,17.70
2023-11-28T05:34:30.886Z,22.80
2023-11-28T05:36:59.376Z,17.48
2023-11-28T05:39:28.990Z,18.13
2023-11-28T05:41:57.407Z,17.25
2023-11-28T05:44:25.983Z,18.38
2023-11-28T05:46:56.061Z,20.10
2023-11-28T05:49:25.447Z,17.65
2023-11-28T05:51:54.126Z,21.80
2023-11-28T05:54:22.524Z,18.48
2023-11-28T05:56:50.987Z,22.95
2023-11-28T05:59:19.367Z,26.13
2023-11-28T06:02:05.146Z,25.83
2023-11-28T06:04:36.040Z,29.02
2023-11-28T06:07:05.247Z,24.70
2023-11-28T06:09:33.639Z,22.98
2023-11-28T06:12:04.571Z,22.75
2023-11-28T06:14:33.366Z,23.30
2023-11-28T06:17:03.248Z,25.25
2023-11-28T06:19:31.745Z,27.00
2023-11-28T06:22:00.181Z,29.13
2023-11-28T06:24:28.646Z,28.05
2023-11-28T06:26:57.054Z,27.50
2023-11-28T06:29:25.480Z,24.27
2023-11-28T06:31:54.137Z,30.10
2023-11-28T06:34:23.883Z,31.98
2023-11-28T06:36:52.354Z,25.90
2023-11-28T06:39:21.151Z,26.65
2023-11-28T06:41:50.095Z,28.85
2023-11-28T06:44:19.892Z,29.00
2023-11-28T06:46:48.818Z,27.08
2023-11-28T06:49:17.378Z,28.55
2023-11-28T06:51:47.276Z,31.88
2023-11-28T06:54:16.322Z,31.88
2023-11-28T06:56:44.762Z,66.07
2023-11-28T06:59:13.457Z,48.30
2023-11-28T07:01:42.407Z,36.55
2023-11-28T07:04:10.968Z,46.05
2023-11-28T07:06:40.824Z,106.57
2023-11-28T07:09:11.311Z,181.02
2023-11-28T07:11:39.749Z,40.90
2023-11-28T07:14:08.281Z,40.20
2023-11-28T07:16:36.985Z,47.33
2023-11-28T07:19:05.979Z,49.53
2023-11-28T07:21:34.916Z,49.45
2023-11-28T07:24:03.481Z,55.17
2023-11-28T07:26:33.291Z,54.22
2023-11-28T07:29:01.736Z,62.80
2023-11-28T07:31:30.964Z,64.95
2023-11-28T07:33:59.686Z,71.72
2023-11-28T07:36:28.168Z,79.85
2023-11-28T07:38:56.547Z,58.38
2023-11-28T07:41:24.968Z,69.85
2023-11-28T07:43:54.831Z,61.92
2023-11-28T07:46:24.651Z,75.05
2023-11-28T07:48:53.211Z,85.20
2023-11-28T07:51:21.960Z,55.33
2023-11-28T07:53:50.365Z,78.72
2023-11-28T07:56:19.389Z,70.50
2023-11-28T07:58:47.872Z,66.68
2023-11-28T08:01:17.753Z,62.38
2023-11-28T08:03:46.276Z,59.70
2023-11-28T08:06:15.476Z,71.75
2023-11-28T08:08:44.128Z,58.90
2023-11-28T08:11:13.203Z,75.78
2023-11-28T08:13:41.666Z,60.58
2023-11-28T08:16:10.589Z,83.18
2023-11-28T08:18:43.041Z,63.28
2023-11-28T08:21:12.097Z,91.63
2023-11-28T08:23:40.625Z,101.70
2023-11-28T08:26:09.755Z,64.80
2023-11-28T08:28:38.558Z,82.70
2023-11-28T08:31:07.348Z,65.72
2023-11-28T08:33:35.811Z,59.55
2023-11-28T08:36:05.953Z,71.20
2023-11-28T08:38:34.525Z,76.25
2023-11-28T08:41:04.781Z,96.38
2023-11-28T08:43:33.704Z,60.45
2023-11-28T08:46:03.117Z,70.15
2023-11-28T08:48:32.528Z,76.38
2023-11-28T08:51:01.899Z,69.68
2023-11-28T08:53:34.140Z,94.70
2023-11-28T08:56:03.003Z,61.63
2023-11-28T08:58:31.453Z,63.38
2023-11-28T09:01:00.034Z,57.83
2023-11-28T09:03:29.661Z,61.55
2023-11-28T09:05:59.032Z,75.05
2023-11-28T09:08:30.175Z,60.38
2023-11-28T09:11:04.283Z,65.10
2023-11-28T09:13:34.171Z,63.78
2023-11-28T09:16:10.357Z,50.65
2023-11-28T09:18:42.252Z,77.03
2023-11-28T09:21:11.214Z,50.10
2023-11-28T09:23:41.583Z,53.10
2023-11-28T09:26:11.910Z,62.22
2023-11-28T09:28:43.320Z,55.08
2023-11-28T09:31:12.100Z,51.65
2023-11-28T09:33:41.722Z,53.13
2023-11-28T09:36:11.862Z,56.47
2023-11-28T09:38:41.408Z,61.67
2023-11-28T09:41:10.764Z,53.03
2023-11-28T09:43:45.151Z,47.20
2023-11-28T09:46:19.895Z,48.20
2023-11-28T09:48:50.587Z,48.08
2023-11-28T09:51:20.045Z,60.05
2023-11-28T09:53:50.279Z,51.40
2023-11-28T09:56:21.630Z,38.88
2023-11-28T09:58:52.050Z,41.70
2023-11-28T10:01:21.094Z,47.55
2023-11-28T10:03:50.417Z,42.30
2023-11-28T10:06:21.091Z,39.75
2023-11-28T10:08:50.783Z,43.42
2023-11-28T10:11:20.247Z,44.47
2023-11-28T10:13:51.411Z,47.47
2023-11-28T10:16:22.606Z,39.10
2023-11-28T10:18:52.111Z,40.92
2023-11-28T10:21:20.944Z,42.03
2023-11-28T10:23:49.722Z,40.13
2023-11-28T10:26:18.429Z,42.35
2023-11-28T10:28:50.733Z,38.08
2023-11-28T10:31:21.155Z,38.90
2023-11-28T10:33:50.268Z,41.72
2023-11-28T10:36:19.503Z,39.33
2023-11-28T10:38:59.049Z,38.55
2023-11-28T10:41:33.772Z,40.28
2023-11-28T10:44:03.874Z,42.10
2023-11-28T10:46:37.384Z,40.10
2023-11-28T10:49:09.988Z,39.95
2023-11-28T10:51:42.348Z,34.80
2023-11-28T10:54:12.884Z,35.83
2023-11-28T10:56:49.322Z,47.83
2023-11-28T10:59:37.847Z,36.88
2023-11-28T11:02:09.796Z,34.67
2023-11-28T11:04:42.978Z,41.72
2023-11-28T11:07:12.193Z,40.30
2023-11-28T11:09:41.678Z,37.33
2023-11-28T11:12:10.799Z,42.63
2023-11-28T11:14:44.298Z,33.92
2023-11-28T11:17:20.840Z,38.58
2023-11-28T11:19:54.909Z,34.40
2023-11-28T11:22:27.219Z,42.00
2023-11-28T11:24:55.971Z,38.47
2023-11-28T11:27:31.407Z,36.65
2023-11-28T11:30:01.398Z,29.35
2023-11-28T11:32:31.441Z,35.40
2023-11-28T11:35:00.359Z,35.85
2023-11-28T11:37:32.788Z,37.85
2023-11-28T11:40:01.797Z,33.55
2023-11-28T11:42:32.362Z,33.17
2023-11-28T11:45:02.691Z,32.22
2023-11-28T11:47:33.873Z,32.90
2023-11-28T11:50:06.614Z,33.15
2023-11-28T11:55:07.162Z,31.75
2023-11-28T11:57:35.814Z,32.80
2023-11-28T12:00:05.689Z,33.67
2023-11-28T12:02:41.574Z,35.83
2023-11-28T12:05:11.743Z,31.23
2023-11-28T12:07:42.225Z,36.35
2023-11-28T12:10:13.049Z,31.65
2023-11-28T12:12:42.484Z,34.00
2023-11-28T12:15:13.978Z,35.15
2023-11-28T12:17:44.256Z,33.90
2023-11-28T12:20:13.508Z,32.15
2023-11-28T12:22:42.121Z,32.30
2023-11-28T12:25:19.731Z,42.53
2023-11-28T12:27:48.287Z,36.58
2023-11-28T12:30:16.909Z,28.25
2023-11-28T12:32:46.992Z,31.63
2023-11-28T12:35:21.901Z,29.70
2023-11-28T12:37:50.774Z,28.83
2023-11-28T12:40:19.717Z,38.40
2023-11-28T12:42:48.873Z,33.80
2023-11-28T12:45:20.582Z,31.77
2023-11-28T12:47:50.619Z,28.90
2023-11-28T12:50:19.302Z,30.67
2023-11-28T12:52:48.840Z,33.40
2023-11-28T12:55:17.513Z,30.60
2023-11-28T12:57:45.905Z,31.63
2023-11-28T13:00:15.143Z,34.42
2023-11-28T13:02:44.211Z,34.38
2023-11-28T13:05:14.315Z,36.70
2023-11-28T13:07:48.116Z,39.95
2023-11-28T13:10:21.580Z,29.70
2023-11-28T13:12:51.148Z,25.90
2023-11-28T13:15:22.581Z,33.78
2023-11-28T13:17:51.122Z,29.23
2023-11-28T13:20:23.957Z,27.92
2023-11-28T13:22:52.725Z,32.88
2023-11-28T13:25:21.342Z,30.75
2023-11-28T13:27:49.754Z,36.45
2023-11-28T13:30:20.070Z,34.10
2023-11-28T13:32:48.925Z,26.38
2023-11-28T13:35:20.519Z,35.38
2023-11-28T13:37:52.023Z,27.95
2023-11-28T13:40:20.461Z,28.05
2023-11-28T13:42:48.962Z,23.52
2023-11-28T13:45:17.489Z,26.90
2023-11-28T13:47:46.564Z,31.48
2023-11-28T13:50:15.250Z,29.65
2023-11-28T13:52:43.883Z,29.27
2023-11-28T13:55:13.923Z,26.30
2023-11-28T13:57:42.485Z,32.08
2023-11-28T14:00:11.225Z,32.25
2023-11-28T14:02:45.500Z,32.42
2023-11-28T14:05:14.552Z,33.55
2023-11-28T14:07:43.059Z,31.02
2023-11-28T14:10:12.066Z,34.03
2023-11-28T14:12:41.970Z,34.90
2023-11-28T14:15:11.056Z,38.83
2023-11-28T14:17:39.847Z,37.65
2023-11-28T14:20:10.592Z,36.42
2023-11-28T14:22:39.200Z,35.35
2023-11-28T14:25:11.256Z,40.28
2023-11-28T14:27:42.806Z,36.88
2023-11-28T14:30:13.841Z,32.22
2023-11-28T14:32:42.485Z,33.30
2023-11-28T14:35:11.647Z,39.35
2023-11-28T14:37:40.728Z,31.13
2023-11-28T14:40:13.676Z,32.80
2023-11-28T14:42:43.683Z,46.78
2023-11-28T14:45:13.819Z,35.58
2023-11-28T14:47:43.159Z,31.58
2023-11-28T14:50:11.825Z,33.38
2023-11-28T14:52:40.753Z,29.05
2023-11-28T14:55:09.610Z,33.90
2023-11-28T14:57:38.718Z,33.95
2023-11-28T15:00:12.512Z,31.85
2023-11-28T15:02:42.642Z,36.58
2023-11-28T15:05:14.195Z,37.35
2023-11-28T15:07:43.969Z,35.83
2023-11-28T15:10:12.893Z,38.00
2023-11-28T15:12:42.168Z,53.00
2023-11-28T15:15:11.074Z,58.50
2023-11-28T15:17:40.150Z,29.63
2023-11-28T15:20:11.005Z,42.30
2023-11-28T15:22:39.551Z,41.53
2023-11-28T15:25:08.472Z,40.88
2023-11-28T15:27:37.292Z,41.28
2023-11-28T15:30:10.874Z,44.22
2023-11-28T15:32:40.171Z,46.67
2023-11-28T15:35:13.490Z,43.85
2023-11-28T15:37:44.737Z,38.35
2023-11-28T15:40:13.563Z,42.10
2023-11-28T15:42:41.968Z,31.65
2023-11-28T15:45:12.106Z,33.75
2023-11-28T15:47:40.696Z,29.75
2023-11-28T15:50:11.082Z,31.08
2023-11-28T15:52:39.570Z,34.63
2023-11-28T15:55:08.689Z,32.58
2023-11-28T15:57:37.193Z,31.33
2023-11-28T16:00:06.449Z,37.30
2023-11-28T16:02:35.265Z,36.15
2023-11-28T16:05:04.832Z,34.33
2023-11-28T16:07:34.853Z,40.28
2023-11-28T16:10:03.501Z,36.70
2023-11-28T16:12:32.182Z,22.77
2023-11-28T16:15:03.343Z,24.52
2023-11-28T16:17:34.285Z,24.02
2023-11-28T16:20:03.550Z,28.13
2023-11-28T16:22:31.990Z,30.33
2023-11-28T16:25:03.125Z,25.13
2023-11-28T16:27:31.643Z,33.28
2023-11-28T16:30:00.151Z,28.83
2023-11-28T16:32:28.808Z,28.75
2023-11-28T16:34:57.631Z,22.42
2023-11-28T16:37:26.089Z,27.48
2023-11-28T16:39:54.648Z,21.88
2023-11-28T16:42:24.629Z,29.65
2023-11-28T16:44:53.130Z,25.00
2023-11-28T16:47:21.903Z,26.17
2023-11-28T16:49:53.779Z,26.17
2023-11-28T16:52:22.361Z,25.23
2023-11-28T16:54:54.946Z,21.33
2023-11-28T16:57:27.607Z,18.27
2023-11-28T17:00:01.130Z,16.23
2023-11-28T17:02:29.852Z,32.05
2023-11-28T17:04:58.368Z,33.35
2023-11-28T17:07:26.904Z,27.63
2023-11-28T17:09:55.621Z,29.88
2023-11-28T17:12:26.352Z,27.48
2023-11-28T17:14:56.158Z,22.65
2023-11-28T17:17:25.029Z,23.58
2023-11-28T17:19:54.521Z,24.23
2023-11-28T17:22:23.242Z,26.52
2023-11-28T17:24:51.844Z,28.60
2023-11-28T17:27:21.244Z,25.88
2023-11-28T17:29:51.206Z,23.70
2023-11-28T17:32:21.992Z,23.73
2023-11-28T17:34:53.215Z,27.55
2023-11-28T17:37:21.730Z,25.75
2023-11-28T17:39:50.238Z,28.83
2023-11-28T17:42:19.537Z,23.80
2023-11-28T17:44:51.367Z,22.52
2023-11-28T17:47:26.653Z,21.10
2023-11-28T17:49:55.543Z,17.15
2023-11-28T17:52:24.109Z,18.23
2023-11-28T17:54:52.609Z,24.67
2023-11-28T17:57:21.160Z,20.30
2023-11-28T17:59:50.338Z,26.60
2023-11-28T18:02:19.616Z,24.60
2023-11-28T18:04:49.730Z,17.23
2023-11-28T18:07:18.650Z,19.70
2023-11-28T18:09:47.244Z,17.65
2023-11-28T18:12:16.302Z,21.35
2023-11-28T18:14:45.622Z,28.55
2023-11-28T18:17:14.336Z,25.95
2023-11-28T18:19:43.095Z,18.25
2023-11-28T18:22:12.950Z,17.08
2023-11-28T18:24:41.553Z,25.50
2023-11-28T18:27:10.150Z,53.95
2023-11-28T18:29:38.774Z,23.98
2023-11-28T18:32:08.175Z,28.77
2023-11-28T18:34:36.876Z,22.92
2023-11-28T18:37:05.969Z,23.42
2023-11-28T18:39:36.054Z,21.40
2023-11-28T18:42:04.614Z,26.48
2023-11-28T18:44:33.154Z,20.13
2023-11-28T18:47:01.918Z,16.48
2023-11-28T18:49:31.560Z,18.60
2023-11-28T18:52:00.245Z,20.23
2023-11-28T18:54:28.931Z,16.55
2023-11-28T18:57:00.668Z,16.85
2023-11-28T18:59:29.240Z,23.43
2023-11-28T19:01:58.099Z,19.30
2023-11-28T19:04:26.950Z,113.20
2023-11-28T19:06:55.654Z,33.58
2023-11-28T19:09:24.885Z,19.08
2023-11-28T19:11:53.290Z,18.98
2023-11-28T19:14:23.622Z,19.98
2023-11-28T19:16:52.186Z,15.43
2023-11-28T19:19:20.742Z,15.95
2023-11-28T19:21:50.224Z,13.15
2023-11-28T19:24:19.305Z,19.48
2023-11-28T19:26:48.804Z,14.10
2023-11-28T19:29:17.465Z,16.63
2023-11-28T19:31:49.367Z,25.33
2023-11-28T19:34:20.348Z,21.13
2023-11-28T19:36:49.119Z,18.17
2023-11-28T19:39:18.837Z,18.98
2023-11-28T19:41:47.689Z,19.20
2023-11-28T19:44:18.491Z,16.77
2023-11-28T19:46:51.240Z,16.33
2023-11-28T19:49:20.062Z,19.90
2023-11-28T19:51:49.034Z,20.95
2023-11-28T19:54:19.724Z,14.18
2023-11-28T19:56:48.780Z,19.67
2023-11-28T19:59:17.276Z,15.65
2023-11-28T20:01:45.921Z,15.80
2023-11-28T20:04:16.244Z,14.32
2023-11-28T20:06:46.362Z,19.45
2023-11-28T20:09:15.218Z,21.35
2023-11-28T20:11:43.866Z,13.75
2023-11-28T20:14:12.461Z,18.90
2023-11-28T20:16:43.103Z,17.20
2023-11-28T20:19:11.814Z,19.02
2023-11-28T20:21:41.631Z,18.65
2023-11-28T20:24:10.248Z,15.32
2023-11-28T20:26:38.711Z,18.15
2023-11-28T20:29:10.455Z,15.25
2023-11-28T20:31:39.688Z,12.45
2023-11-28T20:34:08.691Z,15.23
2023-11-28T20:36:37.488Z,10.27
2023-11-28T20:39:08.257Z,16.30
2023-11-28T20:41:37.160Z,15.27
2023-11-28T20:44:05.637Z,9.13
2023-11-28T20:46:34.165Z,12.25
2023-11-28T20:49:02.709Z,14.10
2023-11-28T20:51:31.291Z,15.48
2023-11-28T20:53:59.875Z,14.27
2023-11-28T20:56:29.687Z,15.45
2023-11-28T20:59:00.611Z,12.15
2023-11-28T21:01:31.509Z,10.02
2023-11-28T21:04:00.156Z,9.45
2023-11-28T21:06:28.905Z,10.25
2023-11-28T21:08:57.421Z,16.23
2023-11-28T21:11:26.390Z,13.07
2023-11-28T21:13:57.593Z,14.18
2023-11-28T21:16:27.392Z,17.60
2023-11-28T21:18:56.051Z,16.27
2023-11-28T21:21:25.383Z,13.55
2023-11-28T21:23:53.843Z,13.82
2023-11-28T21:26:23.036Z,24.45
2023-11-28T21:28:51.638Z,21.33
2023-11-28T21:31:21.580Z,15.95
2023-11-28T21:33:50.185Z,20.58
2023-11-28T21:36:18.943Z,24.42
2023-11-28T21:38:48.943Z,21.60
2023-11-28T21:41:19.265Z,17.20
2023-11-28T21:43:47.688Z,20.80
2023-11-28T21:46:18.472Z,19.10
2023-11-28T21:48:51.856Z,13.30
2023-11-28T21:51:20.731Z,12.07
2023-11-28T21:53:49.290Z,14.55
2023-11-28T21:56:18.129Z,20.17
2023-11-28T21:58:46.603Z,17.67
2023-11-28T22:01:14.972Z,22.65
2023-11-28T22:03:43.436Z,18.50
2023-11-28T22:06:13.636Z,21.92
2023-11-28T22:08:50.729Z,17.23
2023-11-28T22:11:25.741Z,22.58
2023-11-28T22:13:54.281Z,20.63
2023-11-28T22:16:22.747Z,27.73
2023-11-28T22:18:52.061Z,25.08
2023-11-28T22:21:25.512Z,23.02
2023-11-28T22:23:55.431Z,27.60
2023-11-28T22:26:31.087Z,27.08
2023-11-28T22:29:02.108Z,28.15
2023-11-28T22:31:30.904Z,26.38
2023-11-28T22:33:59.389Z,31.70
2023-11-28T22:36:29.512Z,30.30
2023-11-28T22:39:01.104Z,30.35
2023-11-28T22:41:34.205Z,31.08
2023-11-28T22:44:02.731Z,34.05
2023-11-28T22:46:31.151Z,29.33
2023-11-28T22:48:59.640Z,34.28
2023-11-28T22:51:30.864Z,36.88
2023-11-28T22:53:59.264Z,36.70
2023-11-28T22:56:27.825Z,30.50
2023-11-28T22:58:56.482Z,38.05
2023-11-28T23:01:25.622Z,34.72
2023-11-28T23:03:54.470Z,44.67
2023-11-28T23:06:23.140Z,48.03
2023-11-28T23:08:52.984Z,40.75
2023-11-28T23:11:21.574Z,45.10
2023-11-28T23:13:50.131Z,46.92
2023-11-28T23:16:18.667Z,38.65
2023-11-28T23:18:47.259Z,33.05
2023-11-28T23:21:15.754Z,28.88
2023-11-28T23:23:44.234Z,27.65
2023-11-28T23:26:14.078Z,26.98
2023-11-28T23:28:42.510Z,27.23
2023-11-28T23:31:10.988Z,25.08
2023-11-28T23:33:39.471Z,23.30
2023-11-28T23:36:08.229Z,27.55
2023-11-28T23:38:36.746Z,22.85
2023-11-28T23:41:05.237Z,26.58
2023-11-28T23:43:35.125Z,23.50
2023-11-28T23:46:04.012Z,23.67
2023-11-28T23:48:32.602Z,25.17
2023-11-28T23:51:01.324Z,26.25
2023-11-28T23:53:29.840Z,24.77
2023-11-28T23:55:58.377Z,22.23
2023-11-28T23:58:26.882Z,20.63
